Alverda, Pennsylvania
Current Conditions -  °F | °C
As of 2:55 AM on Saturday 25 Oct 2014 (Local Time) from KIDI Reporting Station
Overcast Overcast  
Wind Chill: 46°   Ceiling: 4800
Heat Index: 46°   Visibility: 10mi
Dew Point: 39°   Wind: 3mph
Humidity: 76%   Direction: 230°SW
Pressure: 30.02"   Gusts: NA
Location:  40.63°N, 78.86°W
Report Text: KIDI 250655Z AUTO 23003KT 10SM OVC048 08/04 A3002 RMK A01
Loading
Personal Weather Stations






























Interactive Weather Map New forecast layout! Learn more

10-Day Weather Forecast

Advertisements
Track Severe Weather on mobile